sensor_id;sensor_type;location;lat;lon;timestamp;pressure;altitude;pressure_sealevel;temperature;humidity
8140;BME280;4111;50.972;7.072;2024-03-25T00:01:00;100294.13;;;7.72;92.15
8140;BME280;4111;50.972;7.072;2024-03-25T00:03:25;100290.63;;;7.71;92.09
8140;BME280;4111;50.972;7.072;2024-03-25T00:05:51;100293.22;;;7.78;92.18
8140;BME280;4111;50.972;7.072;2024-03-25T00:08:16;100295.19;;;7.83;92.24
8140;BME280;4111;50.972;7.072;2024-03-25T00:10:42;100298.34;;;7.80;91.94
8140;BME280;4111;50.972;7.072;2024-03-25T00:13:07;100298.63;;;7.66;91.67
8140;BME280;4111;50.972;7.072;2024-03-25T00:15:33;100296.41;;;7.63;91.68
8140;BME280;4111;50.972;7.072;2024-03-25T00:17:59;100301.94;;;7.57;91.55
8140;BME280;4111;50.972;7.072;2024-03-25T00:20:25;100300.28;;;7.55;91.76
8140;BME280;4111;50.972;7.072;2024-03-25T00:22:50;100307.09;;;7.58;92.12
8140;BME280;4111;50.972;7.072;2024-03-25T00:25:16;100309.31;;;7.61;91.68
8140;BME280;4111;50.972;7.072;2024-03-25T00:27:42;100303.34;;;7.59;92.23
8140;BME280;4111;50.972;7.072;2024-03-25T00:30:08;100297.94;;;7.59;92.17
8140;BME280;4111;50.972;7.072;2024-03-25T00:32:34;100296.28;;;7.58;92.14
8140;BME280;4111;50.972;7.072;2024-03-25T00:35:00;100297.22;;;7.52;92.15
8140;BME280;4111;50.972;7.072;2024-03-25T00:37:26;100294.44;;;7.47;92.30
8140;BME280;4111;50.972;7.072;2024-03-25T00:39:51;100305.25;;;7.47;93.02
8140;BME280;4111;50.972;7.072;2024-03-25T00:42:17;100300.88;;;7.46;93.03
8140;BME280;4111;50.972;7.072;2024-03-25T00:44:42;100299.25;;;7.45;93.28
8140;BME280;4111;50.972;7.072;2024-03-25T00:47:08;100304.75;;;7.50;93.10
8140;BME280;4111;50.972;7.072;2024-03-25T00:49:33;100303.13;;;7.49;93.20
8140;BME280;4111;50.972;7.072;2024-03-25T00:52:00;100296.06;;;7.48;93.12
8140;BME280;4111;50.972;7.072;2024-03-25T00:54:25;100295.38;;;7.41;93.12
8140;BME280;4111;50.972;7.072;2024-03-25T00:56:51;100292.56;;;7.35;93.24
8140;BME280;4111;50.972;7.072;2024-03-25T00:59:17;100294.69;;;7.33;93.65
8140;BME280;4111;50.972;7.072;2024-03-25T01:01:43;100293.16;;;7.38;94.29
8140;BME280;4111;50.972;7.072;2024-03-25T01:04:08;100286.69;;;7.39;94.01
8140;BME280;4111;50.972;7.072;2024-03-25T01:06:34;100292.41;;;7.42;94.26
8140;BME280;4111;50.972;7.072;2024-03-25T01:08:59;100290.78;;;7.41;94.22
8140;BME280;4111;50.972;7.072;2024-03-25T01:11:25;100290.78;;;7.41;94.40
8140;BME280;4111;50.972;7.072;2024-03-25T01:13:50;100296.44;;;7.40;94.37
8140;BME280;4111;50.972;7.072;2024-03-25T01:16:16;100289.41;;;7.39;94.39
8140;BME280;4111;50.972;7.072;2024-03-25T01:18:42;100290.91;;;7.34;94.81
8140;BME280;4111;50.972;7.072;2024-03-25T01:21:07;100293.38;;;7.36;94.74
8140;BME280;4111;50.972;7.072;2024-03-25T01:23:33;100291.75;;;7.35;94.73
8140;BME280;4111;50.972;7.072;2024-03-25T01:25:58;100292.09;;;7.39;94.81
8140;BME280;4111;50.972;7.072;2024-03-25T01:28:24;100288.47;;;7.33;95.04
8140;BME280;4111;50.972;7.072;2024-03-25T01:30:49;100290.44;;;7.38;95.07
8140;BME280;4111;50.972;7.072;2024-03-25T01:33:15;100292.56;;;7.35;95.10
8140;BME280;4111;50.972;7.072;2024-03-25T01:35:41;100291.97;;;7.33;95.11
8140;BME280;4111;50.972;7.072;2024-03-25T01:38:07;100293.03;;;7.32;95.32
8140;BME280;4111;50.972;7.072;2024-03-25T01:40:33;100294.81;;;7.39;95.19
8140;BME280;4111;50.972;7.072;2024-03-25T01:43:02;100297.97;;;7.35;95.65
8140;BME280;4111;50.972;7.072;2024-03-25T01:45:30;100290.44;;;7.38;95.20
8140;BME280;4111;50.972;7.072;2024-03-25T01:48:06;100302.78;;;7.45;95.40
8140;BME280;4111;50.972;7.072;2024-03-25T01:50:37;100293.72;;;7.40;95.35
8140;BME280;4111;50.972;7.072;2024-03-25T01:53:04;100293.03;;;7.32;94.85
8140;BME280;4111;50.972;7.072;2024-03-25T01:55:32;100285.28;;;7.24;94.90
8140;BME280;4111;50.972;7.072;2024-03-25T01:58:00;100291.84;;;7.28;94.60
8140;BME280;4111;50.972;7.072;2024-03-25T02:00:26;100300.91;;;7.34;95.50
8140;BME280;4111;50.972;7.072;2024-03-25T02:02:52;100302.41;;;7.30;95.18
8140;BME280;4111;50.972;7.072;2024-03-25T02:05:19;100297.84;;;7.30;94.79
8140;BME280;4111;50.972;7.072;2024-03-25T02:07:46;100301.38;;;7.31;94.68
8140;BME280;4111;50.972;7.072;2024-03-25T02:10:12;100300.53;;;7.30;94.87
8140;BME280;4111;50.972;7.072;2024-03-25T02:12:42;100298.31;;;7.27;94.78
8140;BME280;4111;50.972;7.072;2024-03-25T02:15:09;100293.88;;;7.33;95.21
8140;BME280;4111;50.972;7.072;2024-03-25T02:17:35;100294.09;;;7.31;95.25
8140;BME280;4111;50.972;7.072;2024-03-25T02:20:01;100298.41;;;7.32;95.33
8140;BME280;4111;50.972;7.072;2024-03-25T02:22:28;100306.66;;;7.38;95.07
8140;BME280;4111;50.972;7.072;2024-03-25T02:24:56;100305.03;;;7.37;94.98
8140;BME280;4111;50.972;7.072;2024-03-25T02:27:23;100310.06;;;7.33;94.88
8140;BME280;4111;50.972;7.072;2024-03-25T02:29:49;100305.34;;;7.28;94.47
8140;BME280;4111;50.972;7.072;2024-03-25T02:32:14;100313.94;;;7.25;94.85
8140;BME280;4111;50.972;7.072;2024-03-25T02:34:45;100306.88;;;7.24;94.86
8140;BME280;4111;50.972;7.072;2024-03-25T02:37:11;100312.28;;;7.24;94.80
8140;BME280;4111;50.972;7.072;2024-03-25T02:39:37;100308.53;;;7.25;94.86
8140;BME280;4111;50.972;7.072;2024-03-25T02:42:03;100305.84;;;7.25;94.56
8140;BME280;4111;50.972;7.072;2024-03-25T02:44:30;100296.06;;;7.24;94.45
8140;BME280;4111;50.972;7.072;2024-03-25T02:46:56;100301.97;;;7.21;94.50
8140;BME280;4111;50.972;7.072;2024-03-25T02:49:22;100293.38;;;7.24;94.61
8140;BME280;4111;50.972;7.072;2024-03-25T02:51:48;100308.53;;;7.25;94.81
8140;BME280;4111;50.972;7.072;2024-03-25T02:54:13;100305.03;;;7.25;94.23
8140;BME280;4111;50.972;7.072;2024-03-25T02:56:40;100308.06;;;7.17;94.68
8140;BME280;4111;50.972;7.072;2024-03-25T02:59:05;100306.66;;;7.14;94.77
8140;BME280;4111;50.972;7.072;2024-03-25T03:01:31;100295.41;;;7.17;94.88
8140;BME280;4111;50.972;7.072;2024-03-25T03:03:57;100312.19;;;7.19;94.91
8140;BME280;4111;50.972;7.072;2024-03-25T03:06:22;100307.38;;;7.21;94.69
8140;BME280;4111;50.972;7.072;2024-03-25T03:08:48;100299.84;;;7.23;94.85
8140;BME280;4111;50.972;7.072;2024-03-25T03:11:13;100296.94;;;7.25;94.82
8140;BME280;4111;50.972;7.072;2024-03-25T03:13:39;100287.53;;;7.27;94.71
8140;BME280;4111;50.972;7.072;2024-03-25T03:16:04;100291.03;;;7.28;94.77
8140;BME280;4111;50.972;7.072;2024-03-25T03:18:30;100299.50;;;7.31;94.67
8140;BME280;4111;50.972;7.072;2024-03-25T03:20:56;100296.78;;;7.31;94.72
8140;BME280;4111;50.972;7.072;2024-03-25T03:23:22;100289.16;;;7.28;94.76
8140;BME280;4111;50.972;7.072;2024-03-25T03:25:48;100291.84;;;7.28;94.96
8140;BME280;4111;50.972;7.072;2024-03-25T03:28:14;100288.81;;;7.25;95.12
8140;BME280;4111;50.972;7.072;2024-03-25T03:30:41;100282.47;;;7.19;94.97
8140;BME280;4111;50.972;7.072;2024-03-25T03:33:06;100279.53;;;7.21;95.12
8140;BME280;4111;50.972;7.072;2024-03-25T03:35:33;100281.63;;;7.19;95.37
8140;BME280;4111;50.972;7.072;2024-03-25T03:37:58;100284.59;;;7.17;95.46
8140;BME280;4111;50.972;7.072;2024-03-25T03:40:24;100285.53;;;7.11;95.63
8140;BME280;4111;50.972;7.072;2024-03-25T03:42:49;100293.75;;;7.16;95.57
8140;BME280;4111;50.972;7.072;2024-03-25T03:45:15;100292.22;;;7.20;95.82
8140;BME280;4111;50.972;7.072;2024-03-25T03:47:40;100289.41;;;7.15;95.90
8140;BME280;4111;50.972;7.072;2024-03-25T03:50:06;100293.75;;;7.16;96.12
8140;BME280;4111;50.972;7.072;2024-03-25T03:52:33;100297.50;;;7.15;96.12
8140;BME280;4111;50.972;7.072;2024-03-25T03:54:58;100295.72;;;7.21;96.17
8140;BME280;4111;50.972;7.072;2024-03-25T03:57:25;100293.88;;;7.21;95.29
8140;BME280;4111;50.972;7.072;2024-03-25T03:59:51;100291.03;;;7.16;95.80
8140;BME280;4111;50.972;7.072;2024-03-25T04:02:17;100296.94;;;7.13;95.71
8140;BME280;4111;50.972;7.072;2024-03-25T04:04:43;100300.66;;;7.12;95.60
8140;BME280;4111;50.972;7.072;2024-03-25T04:07:08;100301.59;;;7.18;95.44
8140;BME280;4111;50.972;7.072;2024-03-25T04:09:34;100300.66;;;7.12;95.63
8140;BME280;4111;50.972;7.072;2024-03-25T04:11:59;100295.84;;;7.14;95.65
8140;BME280;4111;50.972;7.072;2024-03-25T04:14:26;100303.50;;;7.05;95.52
8140;BME280;4111;50.972;7.072;2024-03-25T04:16:52;100299.34;;;7.03;95.95
8140;BME280;4111;50.972;7.072;2024-03-25T04:19:25;100305.03;;;7.13;95.61
8140;BME280;4111;50.972;7.072;2024-03-25T04:21:50;100297.84;;;7.07;95.34
8140;BME280;4111;50.972;7.072;2024-03-25T04:24:17;100303.13;;;7.02;95.46
8140;BME280;4111;50.972;7.072;2024-03-25T04:26:44;100300.78;;;6.93;95.62
8140;BME280;4111;50.972;7.072;2024-03-25T04:29:10;100299.72;;;6.94;95.42
8140;BME280;4111;50.972;7.072;2024-03-25T04:31:35;100298.53;;;6.90;95.42
8140;BME280;4111;50.972;7.072;2024-03-25T04:34:03;100291.16;;;6.86;95.45
8140;BME280;4111;50.972;7.072;2024-03-25T04:36:30;100297.22;;;6.81;95.61
8140;BME280;4111;50.972;7.072;2024-03-25T04:38:55;100293.59;;;6.75;95.53
8140;BME280;4111;50.972;7.072;2024-03-25T04:41:21;100304.03;;;6.72;95.76
8140;BME280;4111;50.972;7.072;2024-03-25T04:43:46;100296.97;;;6.71;95.59
8140;BME280;4111;50.972;7.072;2024-03-25T04:46:12;100294.28;;;6.83;95.60
8140;BME280;4111;50.972;7.072;2024-03-25T04:48:37;100303.25;;;6.83;95.23
8140;BME280;4111;50.972;7.072;2024-03-25T04:51:03;100298.28;;;6.80;94.80
8140;BME280;4111;50.972;7.072;2024-03-25T04:53:29;100298.63;;;6.72;94.80
8140;BME280;4111;50.972;7.072;2024-03-25T04:55:55;100298.03;;;6.58;94.89
8140;BME280;4111;50.972;7.072;2024-03-25T04:58:20;100304.91;;;6.42;95.17
8140;BME280;4111;50.972;7.072;2024-03-25T05:00:46;100309.00;;;6.45;95.75
8140;BME280;4111;50.972;7.072;2024-03-25T05:03:12;100308.41;;;6.43;95.84
8140;BME280;4111;50.972;7.072;2024-03-25T05:05:37;100316.34;;;6.38;95.96
8140;BME280;4111;50.972;7.072;2024-03-25T05:08:03;100310.72;;;6.39;95.87
8140;BME280;4111;50.972;7.072;2024-03-25T05:10:28;100310.28;;;6.42;95.90
8140;BME280;4111;50.972;7.072;2024-03-25T05:12:54;100305.22;;;6.34;95.79
8140;BME280;4111;50.972;7.072;2024-03-25T05:15:21;100313.91;;;6.36;96.15
8140;BME280;4111;50.972;7.072;2024-03-25T05:17:46;100312.72;;;6.32;96.24
8140;BME280;4111;50.972;7.072;2024-03-25T05:20:12;100310.47;;;6.29;96.00
8140;BME280;4111;50.972;7.072;2024-03-25T05:22:37;100314.44;;;6.26;96.15
8140;BME280;4111;50.972;7.072;2024-03-25T05:25:03;100321.44;;;6.15;96.30
8140;BME280;4111;50.972;7.072;2024-03-25T05:27:29;100318.22;;;6.07;96.65
8140;BME280;4111;50.972;7.072;2024-03-25T05:29:54;100316.66;;;5.99;96.19
8140;BME280;4111;50.972;7.072;2024-03-25T05:32:20;100324.91;;;6.04;96.54
8140;BME280;4111;50.972;7.072;2024-03-25T05:34:47;100319.97;;;6.01;96.60
8140;BME280;4111;50.972;7.072;2024-03-25T05:37:13;100323.47;;;5.83;96.57
8140;BME280;4111;50.972;7.072;2024-03-25T05:39:39;100314.69;;;5.88;96.97
8140;BME280;4111;50.972;7.072;2024-03-25T05:42:04;100316.34;;;5.89;97.11
8140;BME280;4111;50.972;7.072;2024-03-25T05:44:30;100319.78;;;5.78;97.31
8140;BME280;4111;50.972;7.072;2024-03-25T05:46:55;100317.41;;;5.69;97.26
8140;BME280;4111;50.972;7.072;2024-03-25T05:49:21;100315.16;;;5.66;97.26
8140;BME280;4111;50.972;7.072;2024-03-25T05:51:46;100315.84;;;5.62;97.25
8140;BME280;4111;50.972;7.072;2024-03-25T05:54:13;100317.94;;;5.60;97.41
8140;BME280;4111;50.972;7.072;2024-03-25T05:56:38;100320.03;;;5.57;97.58
8140;BME280;4111;50.972;7.072;2024-03-25T05:59:04;100322.03;;;5.62;97.69
8140;BME280;4111;50.972;7.072;2024-03-25T06:01:29;100331.22;;;5.54;97.42
8140;BME280;4111;50.972;7.072;2024-03-25T06:03:55;100330.50;;;5.47;97.65
8140;BME280;4111;50.972;7.072;2024-03-25T06:06:20;100335.03;;;5.47;97.52
8140;BME280;4111;50.972;7.072;2024-03-25T06:08:46;100341.19;;;5.54;97.86
8140;BME280;4111;50.972;7.072;2024-03-25T06:11:11;100339.47;;;5.60;98.00
8140;BME280;4111;50.972;7.072;2024-03-25T06:13:37;100344.84;;;5.60;97.94
8140;BME280;4111;50.972;7.072;2024-03-25T06:16:03;100344.34;;;5.69;97.93
8140;BME280;4111;50.972;7.072;2024-03-25T06:18:28;100341.66;;;5.69;97.77
8140;BME280;4111;50.972;7.072;2024-03-25T06:20:54;100339.47;;;5.78;98.60
8140;BME280;4111;50.972;7.072;2024-03-25T06:23:24;100338.34;;;5.86;98.44
8140;BME280;4111;50.972;7.072;2024-03-25T06:25:53;100340.31;;;5.97;98.74
8140;BME280;4111;50.972;7.072;2024-03-25T06:28:20;100336.28;;;6.06;98.67
8140;BME280;4111;50.972;7.072;2024-03-25T06:30:49;100338.78;;;6.20;98.69
8140;BME280;4111;50.972;7.072;2024-03-25T06:33:34;100333.03;;;6.16;98.58
8140;BME280;4111;50.972;7.072;2024-03-25T06:36:19;100334.13;;;6.27;98.63
8140;BME280;4111;50.972;7.072;2024-03-25T06:38:44;100333.00;;;6.34;98.46
8140;BME280;4111;50.972;7.072;2024-03-25T06:41:10;100330.84;;;6.25;97.93
8140;BME280;4111;50.972;7.072;2024-03-25T06:43:36;100335.78;;;6.28;98.19
8140;BME280;4111;50.972;7.072;2024-03-25T06:46:03;100331.88;;;6.42;98.31
8140;BME280;4111;50.972;7.072;2024-03-25T06:48:29;100330.25;;;6.53;98.03
8140;BME280;4111;50.972;7.072;2024-03-25T06:50:56;100333.75;;;6.53;98.08
8140;BME280;4111;50.972;7.072;2024-03-25T06:53:22;100348.75;;;6.49;97.62
8140;BME280;4111;50.972;7.072;2024-03-25T06:55:55;100347.66;;;6.69;98.05
8140;BME280;4111;50.972;7.072;2024-03-25T06:58:22;100349.03;;;6.60;97.23
8140;BME280;4111;50.972;7.072;2024-03-25T07:00:48;100348.13;;;6.66;97.12
8140;BME280;4111;50.972;7.072;2024-03-25T07:03:16;100355.41;;;6.77;96.75
8140;BME280;4111;50.972;7.072;2024-03-25T07:05:45;100349.66;;;6.73;96.70
8140;BME280;4111;50.972;7.072;2024-03-25T07:08:12;100348.50;;;6.81;96.64
8140;BME280;4111;50.972;7.072;2024-03-25T07:10:37;100352.41;;;6.85;96.46
8140;BME280;4111;50.972;7.072;2024-03-25T07:13:03;100346.53;;;6.88;95.79
8140;BME280;4111;50.972;7.072;2024-03-25T07:15:29;100350.63;;;6.91;95.87
8140;BME280;4111;50.972;7.072;2024-03-25T07:17:54;100349.25;;;7.12;96.04
8140;BME280;4111;50.972;7.072;2024-03-25T07:20:20;100346.56;;;7.12;95.01
8140;BME280;4111;50.972;7.072;2024-03-25T07:22:48;100348.69;;;7.33;94.93
8140;BME280;4111;50.972;7.072;2024-03-25T07:25:13;100345.41;;;7.55;94.30
8140;BME280;4111;50.972;7.072;2024-03-25T07:27:40;100353.84;;;7.70;93.42
8140;BME280;4111;50.972;7.072;2024-03-25T07:30:06;100349.25;;;7.83;92.49
8140;BME280;4111;50.972;7.072;2024-03-25T07:32:33;100348.75;;;7.86;92.20
8140;BME280;4111;50.972;7.072;2024-03-25T07:34:59;100340.88;;;7.96;91.61
8140;BME280;4111;50.972;7.072;2024-03-25T07:37:25;100336.69;;;8.17;91.49
8140;BME280;4111;50.972;7.072;2024-03-25T07:39:50;100338.38;;;8.35;90.90
8140;BME280;4111;50.972;7.072;2024-03-25T07:42:16;100330.75;;;8.32;89.76
8140;BME280;4111;50.972;7.072;2024-03-25T07:44:42;100332.78;;;8.25;89.27
8140;BME280;4111;50.972;7.072;2024-03-25T07:47:07;100334.25;;;8.44;89.00
8140;BME280;4111;50.972;7.072;2024-03-25T07:49:33;100340.97;;;8.42;88.58
8140;BME280;4111;50.972;7.072;2024-03-25T07:52:00;100338.56;;;8.57;88.51
8140;BME280;4111;50.972;7.072;2024-03-25T07:54:25;100332.41;;;8.79;87.94
8140;BME280;4111;50.972;7.072;2024-03-25T07:56:52;100338.84;;;8.89;87.17
8140;BME280;4111;50.972;7.072;2024-03-25T07:59:18;100341.03;;;8.92;86.43
8140;BME280;4111;50.972;7.072;2024-03-25T08:01:44;100328.91;;;8.95;85.96
8140;BME280;4111;50.972;7.072;2024-03-25T08:04:09;100332.19;;;9.14;85.61
8140;BME280;4111;50.972;7.072;2024-03-25T08:06:35;100335.88;;;9.25;85.31
8140;BME280;4111;50.972;7.072;2024-03-25T08:09:00;100340.22;;;9.26;84.69
8140;BME280;4111;50.972;7.072;2024-03-25T08:11:26;100343.09;;;9.19;84.80
8140;BME280;4111;50.972;7.072;2024-03-25T08:13:52;100341.78;;;9.39;84.58
8140;BME280;4111;50.972;7.072;2024-03-25T08:16:17;100338.78;;;9.57;84.16
8140;BME280;4111;50.972;7.072;2024-03-25T08:18:45;100336.78;;;9.69;83.43
8140;BME280;4111;50.972;7.072;2024-03-25T08:21:10;100337.06;;;9.90;82.71
8140;BME280;4111;50.972;7.072;2024-03-25T08:23:36;100333.53;;;9.89;82.02
8140;BME280;4111;50.972;7.072;2024-03-25T08:26:01;100325.69;;;9.93;81.62
8140;BME280;4111;50.972;7.072;2024-03-25T08:28:27;100336.53;;;9.93;81.21
8140;BME280;4111;50.972;7.072;2024-03-25T08:30:53;100328.91;;;9.68;80.88
8140;BME280;4111;50.972;7.072;2024-03-25T08:33:18;100332.94;;;9.65;80.78
8140;BME280;4111;50.972;7.072;2024-03-25T08:35:43;100323.75;;;9.88;80.44
8140;BME280;4111;50.972;7.072;2024-03-25T08:38:09;100330.63;;;9.96;79.93
8140;BME280;4111;50.972;7.072;2024-03-25T08:40:34;100331.75;;;10.00;78.91
8140;BME280;4111;50.972;7.072;2024-03-25T08:43:00;100333.09;;;9.98;78.10
8140;BME280;4111;50.972;7.072;2024-03-25T08:45:25;100330.56;;;9.91;77.29
8140;BME280;4111;50.972;7.072;2024-03-25T08:47:51;100332.25;;;9.97;77.60
8140;BME280;4111;50.972;7.072;2024-03-25T08:50:16;100328.47;;;9.98;77.20
8140;BME280;4111;50.972;7.072;2024-03-25T08:52:42;100324.63;;;10.16;76.70
8140;BME280;4111;50.972;7.072;2024-03-25T08:55:08;100316.88;;;10.25;75.67
8140;BME280;4111;50.972;7.072;2024-03-25T08:57:33;100317.91;;;10.46;75.43
8140;BME280;4111;50.972;7.072;2024-03-25T08:59:58;100327.03;;;10.62;75.08
8140;BME280;4111;50.972;7.072;2024-03-25T09:02:24;100318.41;;;10.70;75.48
8140;BME280;4111;50.972;7.072;2024-03-25T09:04:50;100318.28;;;10.55;75.52
8140;BME280;4111;50.972;7.072;2024-03-25T09:07:15;100319.50;;;10.42;75.18
8140;BME280;4111;50.972;7.072;2024-03-25T09:09:41;100310.09;;;10.27;75.12
8140;BME280;4111;50.972;7.072;2024-03-25T09:12:25;100311.00;;;9.67;74.29
8140;BME280;4111;50.972;7.072;2024-03-25T09:14:50;100317.97;;;9.80;74.75
8140;BME280;4111;50.972;7.072;2024-03-25T09:17:16;100314.09;;;10.20;75.05
8140;BME280;4111;50.972;7.072;2024-03-25T09:19:42;100309.88;;;10.56;74.37
8140;BME280;4111;50.972;7.072;2024-03-25T09:22:08;100313.19;;;10.63;73.49
8140;BME280;4111;50.972;7.072;2024-03-25T09:24:33;100313.03;;;10.48;72.86
8140;BME280;4111;50.972;7.072;2024-03-25T09:26:59;100317.34;;;10.22;72.22
8140;BME280;4111;50.972;7.072;2024-03-25T09:29:24;100311.75;;;10.06;72.68
8140;BME280;4111;50.972;7.072;2024-03-25T09:31:50;100304.19;;;10.08;73.05
8140;BME280;4111;50.972;7.072;2024-03-25T09:34:15;100292.88;;;10.17;73.29
8140;BME280;4111;50.972;7.072;2024-03-25T09:36:41;100296.69;;;10.16;71.98
8140;BME280;4111;50.972;7.072;2024-03-25T09:39:06;100289.97;;;10.45;71.45
8140;BME280;4111;50.972;7.072;2024-03-25T09:41:35;100295.22;;;10.89;71.78
8140;BME280;4111;50.972;7.072;2024-03-25T09:44:03;100295.81;;;11.34;71.39
8140;BME280;4111;50.972;7.072;2024-03-25T09:46:30;100294.53;;;11.47;70.77
8140;BME280;4111;50.972;7.072;2024-03-25T09:48:56;100296.63;;;11.29;69.59
8140;BME280;4111;50.972;7.072;2024-03-25T09:51:22;100285.88;;;11.13;69.38
8140;BME280;4111;50.972;7.072;2024-03-25T09:53:47;100296.88;;;10.90;69.30
8140;BME280;4111;50.972;7.072;2024-03-25T09:56:13;100296.25;;;10.78;69.17
8140;BME280;4111;50.972;7.072;2024-03-25T09:58:39;100292.28;;;10.64;69.46
8140;BME280;4111;50.972;7.072;2024-03-25T10:01:05;100287.50;;;10.76;68.70
8140;BME280;4111;50.972;7.072;2024-03-25T10:03:31;100286.25;;;10.89;68.05
8140;BME280;4111;50.972;7.072;2024-03-25T10:05:56;100270.38;;;11.08;68.25
8140;BME280;4111;50.972;7.072;2024-03-25T10:08:22;100270.03;;;11.42;68.42
8140;BME280;4111;50.972;7.072;2024-03-25T10:10:48;100266.28;;;11.53;67.57
8140;BME280;4111;50.972;7.072;2024-03-25T10:13:17;100251.09;;;11.57;67.93
8140;BME280;4111;50.972;7.072;2024-03-25T10:15:42;100260.94;;;11.74;67.71
8140;BME280;4111;50.972;7.072;2024-03-25T10:18:11;100247.97;;;11.91;66.99
8140;BME280;4111;50.972;7.072;2024-03-25T10:20:37;100250.97;;;11.95;66.23
8140;BME280;4111;50.972;7.072;2024-03-25T10:23:03;100242.47;;;11.86;65.62
8140;BME280;4111;50.972;7.072;2024-03-25T10:25:30;100242.97;;;11.73;65.76
8140;BME280;4111;50.972;7.072;2024-03-25T10:28:00;100240.88;;;11.85;65.71
8140;BME280;4111;50.972;7.072;2024-03-25T10:30:27;100242.00;;;11.89;65.88
8140;BME280;4111;50.972;7.072;2024-03-25T10:33:04;100229.97;;;11.85;64.74
8140;BME280;4111;50.972;7.072;2024-03-25T10:35:35;100226.97;;;11.86;64.26
8140;BME280;4111;50.972;7.072;2024-03-25T10:38:05;100235.63;;;11.68;63.73
8140;BME280;4111;50.972;7.072;2024-03-25T10:40:35;100226.66;;;11.67;63.27
8140;BME280;4111;50.972;7.072;2024-03-25T10:43:06;100221.47;;;11.66;62.80
8140;BME280;4111;50.972;7.072;2024-03-25T10:45:55;100218.53;;;11.78;62.52
8140;BME280;4111;50.972;7.072;2024-03-25T10:48:27;100211.97;;;11.63;62.02
8140;BME280;4111;50.972;7.072;2024-03-25T10:50:55;100200.22;;;11.52;61.68
8140;BME280;4111;50.972;7.072;2024-03-25T10:53:21;100191.59;;;11.76;62.54
8140;BME280;4111;50.972;7.072;2024-03-25T10:55:54;100194.13;;;11.98;62.14
8140;BME280;4111;50.972;7.072;2024-03-25T10:58:22;100195.75;;;11.99;61.32
8140;BME280;4111;50.972;7.072;2024-03-25T11:00:52;100188.06;;;11.76;60.51
8140;BME280;4111;50.972;7.072;2024-03-25T11:03:22;100190.78;;;11.81;60.82
8140;BME280;4111;50.972;7.072;2024-03-25T11:05:48;100185.69;;;11.89;61.40
8140;BME280;4111;50.972;7.072;2024-03-25T11:08:16;100175.03;;;11.88;60.67
8140;BME280;4111;50.972;7.072;2024-03-25T11:10:43;100176.09;;;11.82;60.25
8140;BME280;4111;50.972;7.072;2024-03-25T11:13:10;100175.53;;;11.75;60.08
8140;BME280;4111;50.972;7.072;2024-03-25T11:15:44;100170.94;;;11.80;60.50
8140;BME280;4111;50.972;7.072;2024-03-25T11:18:14;100172.34;;;11.93;60.17
8140;BME280;4111;50.972;7.072;2024-03-25T11:20:40;100170.72;;;11.97;59.08
8140;BME280;4111;50.972;7.072;2024-03-25T11:23:13;100169.09;;;12.01;59.08
8140;BME280;4111;50.972;7.072;2024-03-25T11:25:39;100160.94;;;12.06;59.39
8140;BME280;4111;50.972;7.072;2024-03-25T11:28:06;100166.38;;;12.06;59.19
8140;BME280;4111;50.972;7.072;2024-03-25T11:30:32;100148.63;;;11.88;57.98
8140;BME280;4111;50.972;7.072;2024-03-25T11:33:00;100149.22;;;11.96;58.78
8140;BME280;4111;50.972;7.072;2024-03-25T11:35:27;100157.13;;;12.07;58.28
8140;BME280;4111;50.972;7.072;2024-03-25T11:37:53;100143.81;;;12.32;58.61
8140;BME280;4111;50.972;7.072;2024-03-25T11:40:18;100137.28;;;12.43;57.79
8140;BME280;4111;50.972;7.072;2024-03-25T11:42:45;100135.88;;;12.61;57.52
8140;BME280;4111;50.972;7.072;2024-03-25T11:45:20;100138.31;;;12.67;56.56
8140;BME280;4111;50.972;7.072;2024-03-25T11:47:48;100131.81;;;12.58;56.36
8140;BME280;4111;50.972;7.072;2024-03-25T11:50:15;100131.50;;;12.60;55.89
8140;BME280;4111;50.972;7.072;2024-03-25T11:52:41;100116.28;;;12.64;55.65
8140;BME280;4111;50.972;7.072;2024-03-25T11:55:07;100109.44;;;12.72;54.66
8140;BME280;4111;50.972;7.072;2024-03-25T11:57:37;100106.69;;;12.82;54.55
8140;BME280;4111;50.972;7.072;2024-03-25T12:00:04;100110.19;;;12.93;53.77
8140;BME280;4111;50.972;7.072;2024-03-25T12:02:31;100114.19;;;13.16;54.06
8140;BME280;4111;50.972;7.072;2024-03-25T12:04:57;100103.16;;;12.76;49.03
8140;BME280;4111;50.972;7.072;2024-03-25T12:07:22;100106.06;;;13.05;49.18
8140;BME280;4111;50.972;7.072;2024-03-25T12:09:48;100101.38;;;13.16;49.39
8140;BME280;4111;50.972;7.072;2024-03-25T12:12:32;100097.91;;;13.00;48.51
8140;BME280;4111;50.972;7.072;2024-03-25T12:14:58;100094.28;;;13.20;48.29
8140;BME280;4111;50.972;7.072;2024-03-25T12:17:24;100084.66;;;13.43;48.11
8140;BME280;4111;50.972;7.072;2024-03-25T12:20:03;100093.16;;;13.26;47.08
8140;BME280;4111;50.972;7.072;2024-03-25T12:22:32;100093.72;;;13.23;47.67
8140;BME280;4111;50.972;7.072;2024-03-25T12:25:03;100081.72;;;13.24;47.13
8140;BME280;4111;50.972;7.072;2024-03-25T12:27:41;100079.50;;;13.37;46.80
8140;BME280;4111;50.972;7.072;2024-03-25T12:30:08;100066.59;;;13.53;46.79
8140;BME280;4111;50.972;7.072;2024-03-25T12:32:40;100070.03;;;13.68;46.46
8140;BME280;4111;50.972;7.072;2024-03-25T12:35:11;100068.34;;;13.28;46.49
8140;BME280;4111;50.972;7.072;2024-03-25T12:37:40;100066.72;;;13.32;46.88
8140;BME280;4111;50.972;7.072;2024-03-25T12:40:09;100055.31;;;13.15;47.49
8140;BME280;4111;50.972;7.072;2024-03-25T12:42:35;100046.00;;;13.31;47.64
8140;BME280;4111;50.972;7.072;2024-03-25T12:45:01;100050.25;;;13.47;47.49
8140;BME280;4111;50.972;7.072;2024-03-25T12:47:28;100037.88;;;13.65;48.01
8140;BME280;4111;50.972;7.072;2024-03-25T12:49:54;100039.00;;;13.94;47.86
8140;BME280;4111;50.972;7.072;2024-03-25T12:52:19;100031.28;;;14.06;47.61
8140;BME280;4111;50.972;7.072;2024-03-25T12:54:46;100037.44;;;14.17;47.43
8140;BME280;4111;50.972;7.072;2024-03-25T12:57:12;100041.75;;;14.23;46.75
8140;BME280;4111;50.972;7.072;2024-03-25T12:59:38;100031.75;;;14.37;47.06
8140;BME280;4111;50.972;7.072;2024-03-25T13:02:04;100028.22;;;14.66;47.30
8140;BME280;4111;50.972;7.072;2024-03-25T13:04:29;100033.38;;;14.67;46.12
8140;BME280;4111;50.972;7.072;2024-03-25T13:06:55;100030.28;;;14.50;46.15
8140;BME280;4111;50.972;7.072;2024-03-25T13:09:20;100022.94;;;14.45;45.65
8140;BME280;4111;50.972;7.072;2024-03-25T13:11:46;100020.28;;;14.40;45.73
8140;BME280;4111;50.972;7.072;2024-03-25T13:14:12;100017.00;;;14.67;46.11